sensor_id;sensor_type;location;lat;lon;timestamp;P1;durP1;ratioP1;P2;durP2;ratioP2
18320;SDS011;54904;54.350;18.664;2023-05-01T00:01:24;2.47;;;1.63;;
18320;SDS011;54904;54.350;18.664;2023-05-01T00:03:53;2.67;;;1.53;;
18320;SDS011;54904;54.350;18.664;2023-05-01T00:06:20;2.60;;;1.70;;
18320;SDS011;54904;54.350;18.664;2023-05-01T00:08:47;1.53;;;1.43;;
18320;SDS011;54904;54.350;18.664;2023-05-01T00:11:15;3.60;;;1.70;;
18320;SDS011;54904;54.350;18.664;2023-05-01T00:13:42;3.30;;;2.03;;
18320;SDS011;54904;54.350;18.664;2023-05-01T00:16:09;6.43;;;2.10;;
18320;SDS011;54904;54.350;18.664;2023-05-01T00:18:37;1.70;;;1.60;;
18320;SDS011;54904;54.350;18.664;2023-05-01T00:21:05;3.27;;;1.87;;
18320;SDS011;54904;54.350;18.664;2023-05-01T00:23:33;1.50;;;1.40;;
18320;SDS011;54904;54.350;18.664;2023-05-01T00:26:00;2.03;;;1.33;;
18320;SDS011;54904;54.350;18.664;2023-05-01T00:28:27;1.47;;;1.30;;
18320;SDS011;54904;54.350;18.664;2023-05-01T00:30:55;2.30;;;1.40;;
18320;SDS011;54904;54.350;18.664;2023-05-01T00:33:22;2.30;;;1.37;;
18320;SDS011;54904;54.350;18.664;2023-05-01T00:35:50;2.43;;;1.60;;
18320;SDS011;54904;54.350;18.664;2023-05-01T00:38:18;3.50;;;2.07;;
18320;SDS011;54904;54.350;18.664;2023-05-01T00:40:45;2.33;;;1.83;;
18320;SDS011;54904;54.350;18.664;2023-05-01T00:43:13;2.50;;;1.60;;
18320;SDS011;54904;54.350;18.664;2023-05-01T00:45:41;4.13;;;1.53;;
18320;SDS011;54904;54.350;18.664;2023-05-01T00:48:10;1.67;;;1.10;;
18320;SDS011;54904;54.350;18.664;2023-05-01T00:50:37;3.63;;;1.90;;
18320;SDS011;54904;54.350;18.664;2023-05-01T00:53:05;3.47;;;1.80;;
18320;SDS011;54904;54.350;18.664;2023-05-01T00:55:33;3.80;;;2.10;;
18320;SDS011;54904;54.350;18.664;2023-05-01T00:58:01;2.97;;;1.90;;
18320;SDS011;54904;54.350;18.664;2023-05-01T01:03:10;3.70;;;2.17;;
18320;SDS011;54904;54.350;18.664;2023-05-01T01:05:40;3.83;;;1.83;;
18320;SDS011;54904;54.350;18.664;2023-05-01T01:08:20;4.13;;;1.90;;
18320;SDS011;54904;54.350;18.664;2023-05-01T01:10:57;2.40;;;1.70;;
18320;SDS011;54904;54.350;18.664;2023-05-01T01:13:31;1.43;;;1.33;;
18320;SDS011;54904;54.350;18.664;2023-05-01T01:16:06;2.50;;;1.60;;
18320;SDS011;54904;54.350;18.664;2023-05-01T01:18:46;2.30;;;1.80;;
18320;SDS011;54904;54.350;18.664;2023-05-01T01:21:20;2.30;;;1.53;;
18320;SDS011;54904;54.350;18.664;2023-05-01T01:24:07;2.40;;;1.60;;
18320;SDS011;54904;54.350;18.664;2023-05-01T01:26:57;4.87;;;2.03;;
18320;SDS011;54904;54.350;18.664;2023-05-01T01:29:50;1.70;;;1.53;;
18320;SDS011;54904;54.350;18.664;2023-05-01T01:35:35;2.20;;;1.63;;
18320;SDS011;54904;54.350;18.664;2023-05-01T01:38:08;2.93;;;1.60;;
18320;SDS011;54904;54.350;18.664;2023-05-01T01:40:43;4.43;;;1.57;;
18320;SDS011;54904;54.350;18.664;2023-05-01T01:43:18;1.60;;;1.50;;
18320;SDS011;54904;54.350;18.664;2023-05-01T01:45:48;2.67;;;1.43;;
18320;SDS011;54904;54.350;18.664;2023-05-01T01:48:23;4.80;;;1.30;;
18320;SDS011;54904;54.350;18.664;2023-05-01T01:50:57;1.97;;;1.40;;
18320;SDS011;54904;54.350;18.664;2023-05-01T01:53:27;1.47;;;1.37;;
18320;SDS011;54904;54.350;18.664;2023-05-01T01:55:56;1.33;;;1.30;;
18320;SDS011;54904;54.350;18.664;2023-05-01T01:58:25;1.43;;;1.33;;
18320;SDS011;54904;54.350;18.664;2023-05-01T02:00:53;1.47;;;1.30;;
18320;SDS011;54904;54.350;18.664;2023-05-01T02:03:22;1.77;;;1.43;;
18320;SDS011;54904;54.350;18.664;2023-05-01T02:05:51;1.33;;;1.23;;
18320;SDS011;54904;54.350;18.664;2023-05-01T02:08:25;1.37;;;1.27;;
18320;SDS011;54904;54.350;18.664;2023-05-01T02:10:59;2.17;;;1.50;;
18320;SDS011;54904;54.350;18.664;2023-05-01T02:13:28;4.17;;;1.80;;
18320;SDS011;54904;54.350;18.664;2023-05-01T02:15:57;3.13;;;2.17;;
18320;SDS011;54904;54.350;18.664;2023-05-01T02:18:28;2.27;;;1.80;;
18320;SDS011;54904;54.350;18.664;2023-05-01T02:20:57;3.30;;;1.90;;
18320;SDS011;54904;54.350;18.664;2023-05-01T02:23:27;2.37;;;1.73;;
18320;SDS011;54904;54.350;18.664;2023-05-01T02:25:57;1.73;;;1.63;;
18320;SDS011;54904;54.350;18.664;2023-05-01T02:28:28;3.00;;;2.10;;
18320;SDS011;54904;54.350;18.664;2023-05-01T02:30:55;3.50;;;2.30;;
18320;SDS011;54904;54.350;18.664;2023-05-01T02:33:31;2.37;;;2.13;;
18320;SDS011;54904;54.350;18.664;2023-05-01T02:35:58;2.90;;;2.27;;
18320;SDS011;54904;54.350;18.664;2023-05-01T02:38:25;3.47;;;2.37;;
18320;SDS011;54904;54.350;18.664;2023-05-01T02:40:55;4.23;;;2.10;;
18320;SDS011;54904;54.350;18.664;2023-05-01T02:43:24;2.40;;;1.60;;
18320;SDS011;54904;54.350;18.664;2023-05-01T02:45:54;2.03;;;1.67;;
18320;SDS011;54904;54.350;18.664;2023-05-01T02:48:24;1.40;;;1.30;;
18320;SDS011;54904;54.350;18.664;2023-05-01T02:50:56;3.07;;;2.20;;
18320;SDS011;54904;54.350;18.664;2023-05-01T02:53:25;2.03;;;1.83;;
18320;SDS011;54904;54.350;18.664;2023-05-01T02:56:01;3.50;;;2.37;;
18320;SDS011;54904;54.350;18.664;2023-05-01T02:58:29;3.00;;;2.43;;
18320;SDS011;54904;54.350;18.664;2023-05-01T03:00:57;5.70;;;2.50;;
18320;SDS011;54904;54.350;18.664;2023-05-01T03:03:24;4.60;;;1.80;;
18320;SDS011;54904;54.350;18.664;2023-05-01T03:05:52;2.40;;;1.83;;
18320;SDS011;54904;54.350;18.664;2023-05-01T03:08:19;1.90;;;1.80;;
18320;SDS011;54904;54.350;18.664;2023-05-01T03:10:46;6.33;;;2.03;;
18320;SDS011;54904;54.350;18.664;2023-05-01T03:13:14;2.93;;;2.17;;
18320;SDS011;54904;54.350;18.664;2023-05-01T03:15:42;1.47;;;1.37;;
18320;SDS011;54904;54.350;18.664;2023-05-01T03:18:10;3.30;;;1.77;;
18320;SDS011;54904;54.350;18.664;2023-05-01T03:20:37;2.47;;;1.60;;
18320;SDS011;54904;54.350;18.664;2023-05-01T03:23:05;3.03;;;2.00;;
18320;SDS011;54904;54.350;18.664;2023-05-01T03:25:33;2.07;;;1.67;;
18320;SDS011;54904;54.350;18.664;2023-05-01T03:28:01;1.93;;;1.60;;
18320;SDS011;54904;54.350;18.664;2023-05-01T03:30:30;2.67;;;1.60;;
18320;SDS011;54904;54.350;18.664;2023-05-01T03:32:59;2.60;;;1.90;;
18320;SDS011;54904;54.350;18.664;2023-05-01T03:35:29;2.60;;;1.60;;
18320;SDS011;54904;54.350;18.664;2023-05-01T03:37:57;1.87;;;1.50;;
18320;SDS011;54904;54.350;18.664;2023-05-01T03:40:43;2.23;;;1.57;;
18320;SDS011;54904;54.350;18.664;2023-05-01T03:43:28;2.67;;;1.73;;
18320;SDS011;54904;54.350;18.664;2023-05-01T03:45:58;1.83;;;1.50;;
18320;SDS011;54904;54.350;18.664;2023-05-01T03:48:26;1.40;;;1.30;;
18320;SDS011;54904;54.350;18.664;2023-05-01T03:50:53;1.50;;;1.40;;
18320;SDS011;54904;54.350;18.664;2023-05-01T03:53:20;2.30;;;1.27;;
18320;SDS011;54904;54.350;18.664;2023-05-01T03:55:48;1.10;;;1.00;;
18320;SDS011;54904;54.350;18.664;2023-05-01T03:58:15;2.53;;;1.17;;
18320;SDS011;54904;54.350;18.664;2023-05-01T04:00:43;1.43;;;1.17;;
18320;SDS011;54904;54.350;18.664;2023-05-01T04:03:11;2.47;;;1.80;;
18320;SDS011;54904;54.350;18.664;2023-05-01T04:05:41;2.83;;;2.20;;
18320;SDS011;54904;54.350;18.664;2023-05-01T04:08:08;3.00;;;2.57;;
18320;SDS011;54904;54.350;18.664;2023-05-01T04:10:35;4.63;;;2.30;;
18320;SDS011;54904;54.350;18.664;2023-05-01T04:13:03;4.73;;;2.00;;
18320;SDS011;54904;54.350;18.664;2023-05-01T04:15:31;2.83;;;1.73;;
18320;SDS011;54904;54.350;18.664;2023-05-01T04:17:58;1.70;;;1.60;;
18320;SDS011;54904;54.350;18.664;2023-05-01T04:20:27;2.67;;;1.97;;
18320;SDS011;54904;54.350;18.664;2023-05-01T04:22:54;4.37;;;2.03;;
18320;SDS011;54904;54.350;18.664;2023-05-01T04:25:22;2.97;;;1.97;;
18320;SDS011;54904;54.350;18.664;2023-05-01T04:27:53;1.63;;;1.50;;
18320;SDS011;54904;54.350;18.664;2023-05-01T04:30:21;4.73;;;2.80;;
18320;SDS011;54904;54.350;18.664;2023-05-01T04:32:48;4.80;;;3.10;;
18320;SDS011;54904;54.350;18.664;2023-05-01T04:35:16;3.77;;;2.73;;
18320;SDS011;54904;54.350;18.664;2023-05-01T04:37:45;3.33;;;2.83;;
18320;SDS011;54904;54.350;18.664;2023-05-01T04:40:12;4.90;;;3.17;;
18320;SDS011;54904;54.350;18.664;2023-05-01T04:42:41;4.23;;;2.97;;
18320;SDS011;54904;54.350;18.664;2023-05-01T04:45:11;3.80;;;2.90;;
18320;SDS011;54904;54.350;18.664;2023-05-01T04:47:39;3.97;;;2.70;;
18320;SDS011;54904;54.350;18.664;2023-05-01T04:50:06;5.03;;;3.70;;
18320;SDS011;54904;54.350;18.664;2023-05-01T04:52:34;6.07;;;3.77;;
18320;SDS011;54904;54.350;18.664;2023-05-01T04:55:04;8.77;;;4.20;;
18320;SDS011;54904;54.350;18.664;2023-05-01T04:57:36;6.30;;;3.90;;
18320;SDS011;54904;54.350;18.664;2023-05-01T05:00:06;5.53;;;4.00;;
18320;SDS011;54904;54.350;18.664;2023-05-01T05:02:43;7.00;;;3.67;;
18320;SDS011;54904;54.350;18.664;2023-05-01T05:05:12;3.50;;;3.07;;
18320;SDS011;54904;54.350;18.664;2023-05-01T05:07:39;8.87;;;4.10;;
18320;SDS011;54904;54.350;18.664;2023-05-01T05:10:32;9.03;;;4.10;;
18320;SDS011;54904;54.350;18.664;2023-05-01T05:13:13;5.07;;;3.63;;
18320;SDS011;54904;54.350;18.664;2023-05-01T05:15:40;3.93;;;2.90;;
18320;SDS011;54904;54.350;18.664;2023-05-01T05:18:09;3.03;;;2.73;;
18320;SDS011;54904;54.350;18.664;2023-05-01T05:20:37;6.30;;;3.67;;
18320;SDS011;54904;54.350;18.664;2023-05-01T05:23:05;4.73;;;2.77;;
18320;SDS011;54904;54.350;18.664;2023-05-01T05:25:34;10.57;;;3.20;;
18320;SDS011;54904;54.350;18.664;2023-05-01T05:28:01;4.53;;;3.03;;
18320;SDS011;54904;54.350;18.664;2023-05-01T05:30:28;6.33;;;3.63;;
18320;SDS011;54904;54.350;18.664;2023-05-01T05:32:56;4.20;;;2.90;;
18320;SDS011;54904;54.350;18.664;2023-05-01T05:35:23;3.63;;;2.83;;
18320;SDS011;54904;54.350;18.664;2023-05-01T05:37:52;4.27;;;2.90;;
18320;SDS011;54904;54.350;18.664;2023-05-01T05:40:19;5.07;;;3.40;;
18320;SDS011;54904;54.350;18.664;2023-05-01T05:42:56;5.80;;;2.97;;
18320;SDS011;54904;54.350;18.664;2023-05-01T05:45:26;5.60;;;2.93;;
18320;SDS011;54904;54.350;18.664;2023-05-01T05:47:54;3.00;;;2.40;;
18320;SDS011;54904;54.350;18.664;2023-05-01T05:50:21;4.53;;;2.43;;
18320;SDS011;54904;54.350;18.664;2023-05-01T05:52:48;3.77;;;2.40;;
18320;SDS011;54904;54.350;18.664;2023-05-01T05:55:16;4.90;;;3.20;;
18320;SDS011;54904;54.350;18.664;2023-05-01T05:57:58;3.63;;;2.53;;
18320;SDS011;54904;54.350;18.664;2023-05-01T06:00:26;4.10;;;2.43;;
18320;SDS011;54904;54.350;18.664;2023-05-01T06:02:54;2.63;;;1.83;;
18320;SDS011;54904;54.350;18.664;2023-05-01T06:05:24;2.73;;;1.93;;
18320;SDS011;54904;54.350;18.664;2023-05-01T06:07:51;3.17;;;2.23;;
18320;SDS011;54904;54.350;18.664;2023-05-01T06:10:20;6.00;;;2.77;;
18320;SDS011;54904;54.350;18.664;2023-05-01T06:12:47;2.77;;;2.20;;
18320;SDS011;54904;54.350;18.664;2023-05-01T06:15:16;6.03;;;2.80;;
18320;SDS011;54904;54.350;18.664;2023-05-01T06:17:50;3.70;;;2.60;;
18320;SDS011;54904;54.350;18.664;2023-05-01T06:20:17;5.00;;;2.13;;
18320;SDS011;54904;54.350;18.664;2023-05-01T06:22:45;2.30;;;1.70;;
18320;SDS011;54904;54.350;18.664;2023-05-01T06:25:20;9.63;;;2.00;;
18320;SDS011;54904;54.350;18.664;2023-05-01T06:27:48;4.27;;;2.40;;
18320;SDS011;54904;54.350;18.664;2023-05-01T06:30:17;3.00;;;2.20;;
18320;SDS011;54904;54.350;18.664;2023-05-01T06:32:46;6.23;;;1.83;;
18320;SDS011;54904;54.350;18.664;2023-05-01T06:35:14;2.30;;;1.47;;
18320;SDS011;54904;54.350;18.664;2023-05-01T06:37:42;4.43;;;2.20;;
18320;SDS011;54904;54.350;18.664;2023-05-01T06:40:10;2.20;;;1.50;;
18320;SDS011;54904;54.350;18.664;2023-05-01T06:42:38;3.03;;;1.87;;
18320;SDS011;54904;54.350;18.664;2023-05-01T06:45:06;2.10;;;1.83;;
18320;SDS011;54904;54.350;18.664;2023-05-01T06:47:35;2.47;;;1.80;;
18320;SDS011;54904;54.350;18.664;2023-05-01T06:50:02;4.57;;;2.10;;
18320;SDS011;54904;54.350;18.664;2023-05-01T06:52:32;3.87;;;2.17;;
18320;SDS011;54904;54.350;18.664;2023-05-01T06:54:59;4.00;;;2.07;;
18320;SDS011;54904;54.350;18.664;2023-05-01T06:57:26;3.67;;;2.20;;
18320;SDS011;54904;54.350;18.664;2023-05-01T06:59:54;2.90;;;1.80;;
18320;SDS011;54904;54.350;18.664;2023-05-01T07:02:21;5.20;;;2.27;;
18320;SDS011;54904;54.350;18.664;2023-05-01T07:04:50;4.10;;;2.17;;
18320;SDS011;54904;54.350;18.664;2023-05-01T07:07:17;4.37;;;2.10;;
18320;SDS011;54904;54.350;18.664;2023-05-01T07:09:44;3.67;;;1.83;;
18320;SDS011;54904;54.350;18.664;2023-05-01T07:12:11;3.57;;;1.67;;
18320;SDS011;54904;54.350;18.664;2023-05-01T07:14:38;4.33;;;1.77;;
18320;SDS011;54904;54.350;18.664;2023-05-01T07:17:05;3.20;;;1.43;;
18320;SDS011;54904;54.350;18.664;2023-05-01T07:19:33;1.60;;;1.43;;
18320;SDS011;54904;54.350;18.664;2023-05-01T07:22:01;3.27;;;1.90;;
18320;SDS011;54904;54.350;18.664;2023-05-01T07:24:28;2.00;;;1.10;;
18320;SDS011;54904;54.350;18.664;2023-05-01T07:26:56;2.17;;;1.30;;
18320;SDS011;54904;54.350;18.664;2023-05-01T07:29:24;3.50;;;1.63;;
18320;SDS011;54904;54.350;18.664;2023-05-01T07:31:51;3.70;;;1.60;;
18320;SDS011;54904;54.350;18.664;2023-05-01T07:34:18;4.07;;;1.53;;
18320;SDS011;54904;54.350;18.664;2023-05-01T07:36:45;1.33;;;1.13;;
18320;SDS011;54904;54.350;18.664;2023-05-01T07:39:13;2.77;;;1.30;;
18320;SDS011;54904;54.350;18.664;2023-05-01T07:41:41;1.80;;;1.17;;
18320;SDS011;54904;54.350;18.664;2023-05-01T07:44:08;1.47;;;1.00;;
18320;SDS011;54904;54.350;18.664;2023-05-01T07:46:36;3.90;;;1.00;;
18320;SDS011;54904;54.350;18.664;2023-05-01T07:49:03;3.00;;;1.40;;
18320;SDS011;54904;54.350;18.664;2023-05-01T07:51:30;1.77;;;1.20;;
18320;SDS011;54904;54.350;18.664;2023-05-01T07:53:57;2.70;;;1.20;;
18320;SDS011;54904;54.350;18.664;2023-05-01T07:56:30;2.00;;;1.30;;
18320;SDS011;54904;54.350;18.664;2023-05-01T07:58:57;3.23;;;1.30;;
18320;SDS011;54904;54.350;18.664;2023-05-01T08:01:24;3.07;;;1.30;;
18320;SDS011;54904;54.350;18.664;2023-05-01T08:03:51;3.50;;;1.50;;
18320;SDS011;54904;54.350;18.664;2023-05-01T08:06:18;3.90;;;1.60;;
18320;SDS011;54904;54.350;18.664;2023-05-01T08:08:45;5.57;;;1.50;;
18320;SDS011;54904;54.350;18.664;2023-05-01T08:11:12;2.90;;;2.00;;
18320;SDS011;54904;54.350;18.664;2023-05-01T08:13:41;1.43;;;1.20;;
18320;SDS011;54904;54.350;18.664;2023-05-01T08:16:10;2.93;;;1.30;;
18320;SDS011;54904;54.350;18.664;2023-05-01T08:18:39;4.83;;;1.57;;
18320;SDS011;54904;54.350;18.664;2023-05-01T08:21:06;3.40;;;1.60;;
18320;SDS011;54904;54.350;18.664;2023-05-01T08:23:33;2.07;;;1.23;;
18320;SDS011;54904;54.350;18.664;2023-05-01T08:26:00;4.63;;;1.43;;
18320;SDS011;54904;54.350;18.664;2023-05-01T08:28:27;3.23;;;1.40;;
18320;SDS011;54904;54.350;18.664;2023-05-01T08:30:56;1.40;;;1.30;;
18320;SDS011;54904;54.350;18.664;2023-05-01T08:33:23;2.23;;;1.50;;
18320;SDS011;54904;54.350;18.664;2023-05-01T08:35:52;3.80;;;1.20;;
18320;SDS011;54904;54.350;18.664;2023-05-01T08:38:22;3.03;;;1.43;;
18320;SDS011;54904;54.350;18.664;2023-05-01T08:40:50;2.13;;;1.50;;
18320;SDS011;54904;54.350;18.664;2023-05-01T08:43:18;3.27;;;1.40;;
18320;SDS011;54904;54.350;18.664;2023-05-01T08:45:45;4.23;;;1.80;;
18320;SDS011;54904;54.350;18.664;2023-05-01T08:48:15;3.17;;;1.30;;
18320;SDS011;54904;54.350;18.664;2023-05-01T08:50:44;2.07;;;1.40;;
18320;SDS011;54904;54.350;18.664;2023-05-01T08:53:12;2.50;;;1.87;;
18320;SDS011;54904;54.350;18.664;2023-05-01T08:55:43;2.17;;;1.40;;
18320;SDS011;54904;54.350;18.664;2023-05-01T08:58:11;3.17;;;1.70;;
18320;SDS011;54904;54.350;18.664;2023-05-01T09:00:42;3.57;;;1.50;;
18320;SDS011;54904;54.350;18.664;2023-05-01T09:03:10;1.30;;;1.20;;
18320;SDS011;54904;54.350;18.664;2023-05-01T09:05:40;2.03;;;1.50;;
18320;SDS011;54904;54.350;18.664;2023-05-01T09:08:07;4.00;;;1.50;;
18320;SDS011;54904;54.350;18.664;2023-05-01T09:10:35;2.47;;;2.27;;
18320;SDS011;54904;54.350;18.664;2023-05-01T09:13:08;3.37;;;2.43;;
18320;SDS011;54904;54.350;18.664;2023-05-01T09:15:35;5.00;;;3.00;;
18320;SDS011;54904;54.350;18.664;2023-05-01T09:18:02;4.30;;;2.10;;
18320;SDS011;54904;54.350;18.664;2023-05-01T09:20:30;4.10;;;2.47;;
18320;SDS011;54904;54.350;18.664;2023-05-01T09:22:58;2.53;;;1.70;;
18320;SDS011;54904;54.350;18.664;2023-05-01T09:25:25;2.83;;;1.60;;
18320;SDS011;54904;54.350;18.664;2023-05-01T09:27:53;2.50;;;1.60;;
18320;SDS011;54904;54.350;18.664;2023-05-01T09:30:30;2.53;;;1.30;;
18320;SDS011;54904;54.350;18.664;2023-05-01T09:33:08;1.87;;;1.30;;
18320;SDS011;54904;54.350;18.664;2023-05-01T09:35:49;2.50;;;1.50;;
18320;SDS011;54904;54.350;18.664;2023-05-01T09:38:19;3.50;;;1.80;;
18320;SDS011;54904;54.350;18.664;2023-05-01T09:40:47;2.27;;;1.40;;
18320;SDS011;54904;54.350;18.664;2023-05-01T09:43:16;1.57;;;1.00;;
18320;SDS011;54904;54.350;18.664;2023-05-01T09:45:58;4.30;;;1.53;;
18320;SDS011;54904;54.350;18.664;2023-05-01T09:48:26;1.53;;;1.43;;
18320;SDS011;54904;54.350;18.664;2023-05-01T09:50:53;1.60;;;1.23;;
18320;SDS011;54904;54.350;18.664;2023-05-01T09:53:24;0.90;;;0.83;;
18320;SDS011;54904;54.350;18.664;2023-05-01T09:56:02;1.17;;;1.07;;
18320;SDS011;54904;54.350;18.664;2023-05-01T09:58:29;1.13;;;1.03;;
18320;SDS011;54904;54.350;18.664;2023-05-01T10:00:56;4.50;;;1.67;;
18320;SDS011;54904;54.350;18.664;2023-05-01T10:03:24;1.13;;;1.00;;
18320;SDS011;54904;54.350;18.664;2023-05-01T10:05:52;2.63;;;1.20;;
18320;SDS011;54904;54.350;18.664;2023-05-01T10:08:22;2.83;;;1.33;;
18320;SDS011;54904;54.350;18.664;2023-05-01T10:10:59;0.90;;;0.90;;
18320;SDS011;54904;54.350;18.664;2023-05-01T10:13:28;2.77;;;1.40;;
18320;SDS011;54904;54.350;18.664;2023-05-01T10:15:56;1.40;;;1.30;;
18320;SDS011;54904;54.350;18.664;2023-05-01T10:18:25;2.70;;;1.93;;
18320;SDS011;54904;54.350;18.664;2023-05-01T10:20:54;2.70;;;1.57;;
18320;SDS011;54904;54.350;18.664;2023-05-01T10:23:23;3.47;;;2.40;;
18320;SDS011;54904;54.350;18.664;2023-05-01T10:25:51;2.03;;;1.60;;
18320;SDS011;54904;54.350;18.664;2023-05-01T10:28:19;2.43;;;1.67;;
18320;SDS011;54904;54.350;18.664;2023-05-01T10:30:47;2.20;;;1.63;;
18320;SDS011;54904;54.350;18.664;2023-05-01T10:33:15;1.40;;;1.30;;
18320;SDS011;54904;54.350;18.664;2023-05-01T10:35:44;1.83;;;1.50;;
18320;SDS011;54904;54.350;18.664;2023-05-01T10:38:18;2.33;;;1.70;;
18320;SDS011;54904;54.350;18.664;2023-05-01T10:40:50;1.80;;;1.60;;
18320;SDS011;54904;54.350;18.664;2023-05-01T10:43:18;1.40;;;1.30;;
18320;SDS011;54904;54.350;18.664;2023-05-01T10:45:50;2.20;;;1.20;;
18320;SDS011;54904;54.350;18.664;2023-05-01T10:51:19;2.70;;;1.30;;
18320;SDS011;54904;54.350;18.664;2023-05-01T10:53:47;1.23;;;1.10;;
18320;SDS011;54904;54.350;18.664;2023-05-01T10:59:09;4.07;;;2.17;;
18320;SDS011;54904;54.350;18.664;2023-05-01T11:01:37;2.50;;;2.00;;
18320;SDS011;54904;54.350;18.664;2023-05-01T11:04:05;2.10;;;1.30;;
18320;SDS011;54904;54.350;18.664;2023-05-01T11:06:33;1.80;;;1.70;;
18320;SDS011;54904;54.350;18.664;2023-05-01T11:09:01;2.37;;;1.90;;
18320;SDS011;54904;54.350;18.664;2023-05-01T11:12:03;3.13;;;1.67;;
18320;SDS011;54904;54.350;18.664;2023-05-01T11:23:21;1.70;;;1.60;;
18320;SDS011;54904;54.350;18.664;2023-05-01T11:25:49;2.23;;;1.77;;
18320;SDS011;54904;54.350;18.664;2023-05-01T11:28:33;2.25;;;1.50;;
18320;SDS011;54904;54.350;18.664;2023-05-01T11:31:03;2.80;;;1.65;;
18320;SDS011;54904;54.350;18.664;2023-05-01T11:33:30;1.77;;;1.67;;
18320;SDS011;54904;54.350;18.664;2023-05-01T11:35:59;2.78;;;2.00;;
18320;SDS011;54904;54.350;18.664;2023-05-01T11:38:27;1.90;;;1.33;;
18320;SDS011;54904;54.350;18.664;2023-05-01T11:40:55;1.80;;;1.30;;
18320;SDS011;54904;54.350;18.664;2023-05-01T11:43:28;2.13;;;1.75;;
18320;SDS011;54904;54.350;18.664;2023-05-01T11:45:57;2.33;;;1.67;;
18320;SDS011;54904;54.350;18.664;2023-05-01T11:48:28;2.03;;;1.40;;
18320;SDS011;54904;54.350;18.664;2023-05-01T11:50:56;2.90;;;1.63;;
18320;SDS011;54904;54.350;18.664;2023-05-01T11:53:23;2.72;;;1.83;;
18320;SDS011;54904;54.350;18.664;2023-05-01T11:55:51;2.63;;;1.80;;
18320;SDS011;54904;54.350;18.664;2023-05-01T12:01:04;2.00;;;1.80;;
18320;SDS011;54904;54.350;18.664;2023-05-01T12:03:41;1.85;;;1.45;;
18320;SDS011;54904;54.350;18.664;2023-05-01T12:06:11;1.50;;;1.40;;
18320;SDS011;54904;54.350;18.664;2023-05-01T12:08:42;1.45;;;1.35;;
18320;SDS011;54904;54.350;18.664;2023-05-01T12:11:14;2.78;;;1.35;;
18320;SDS011;54904;54.350;18.664;2023-05-01T12:13:42;2.85;;;1.70;;
18320;SDS011;54904;54.350;18.664;2023-05-01T12:16:13;3.88;;;1.55;;
18320;SDS011;54904;54.350;18.664;2023-05-01T12:18:41;2.17;;;1.50;;
18320;SDS011;54904;54.350;18.664;2023-05-01T12:21:13;1.88;;;1.67;;
18320;SDS011;54904;54.350;18.664;2023-05-01T12:23:41;1.40;;;1.30;;
18320;SDS011;54904;54.350;18.664;2023-05-01T12:26:14;1.55;;;1.45;;
18320;SDS011;54904;54.350;18.664;2023-05-01T12:28:51;1.45;;;1.30;;
18320;SDS011;54904;54.350;18.664;2023-05-01T12:31:20;2.45;;;1.90;;
18320;SDS011;54904;54.350;18.664;2023-05-01T12:33:51;1.95;;;1.80;;
18320;SDS011;54904;54.350;18.664;2023-05-01T12:36:20;1.48;;;1.38;;
18320;SDS011;54904;54.350;18.664;2023-05-01T12:38:53;1.55;;;1.45;;
18320;SDS011;54904;54.350;18.664;2023-05-01T12:41:37;1.77;;;1.33;;
18320;SDS011;54904;54.350;18.664;2023-05-01T12:44:18;1.10;;;1.10;;
18320;SDS011;54904;54.350;18.664;2023-05-01T12:46:53;2.05;;;1.00;;
18320;SDS011;54904;54.350;18.664;2023-05-01T12:49:21;1.52;;;1.25;;
18320;SDS011;54904;54.350;18.664;2023-05-01T12:51:49;2.40;;;1.38;;
18320;SDS011;54904;54.350;18.664;2023-05-01T12:54:20;1.75;;;1.42;;
18320;SDS011;54904;54.350;18.664;2023-05-01T12:56:48;2.85;;;1.67;;
18320;SDS011;54904;54.350;18.664;2023-05-01T12:59:20;3.22;;;1.45;;
18320;SDS011;54904;54.350;18.664;2023-05-01T13:01:56;3.20;;;1.98;;
18320;SDS011;54904;54.350;18.664;2023-05-01T13:04:24;4.07;;;1.80;;
18320;SDS011;54904;54.350;18.664;2023-05-01T13:06:52;2.35;;;1.40;;
18320;SDS011;54904;54.350;18.664;2023-05-01T13:09:20;2.35;;;1.77;;
18320;SDS011;54904;54.350;18.664;2023-05-01T13:12:00;1.98;;;1.50;;
18320;SDS011;54904;54.350;18.664;2023-05-01T13:14:34;3.10;;;1.73;;
18320;SDS011;54904;54.350;18.664;2023-05-01T13:17:03;2.60;;;1.75;;
18320;SDS011;54904;54.350;18.664;2023-05-01T13:19:32;1.60;;;1.50;;
18320;SDS011;54904;54.350;18.664;2023-05-01T13:21:59;2.30;;;1.48;;
18320;SDS011;54904;54.350;18.664;2023-05-01T13:24:34;1.75;;;1.30;;
18320;SDS011;54904;54.350;18.664;2023-05-01T13:27:02;2.40;;;1.80;;
18320;SDS011;54904;54.350;18.664;2023-05-01T13:29:30;3.47;;;1.95;;
18320;SDS011;54904;54.350;18.664;2023-05-01T13:31:57;1.90;;;1.80;;
18320;SDS011;54904;54.350;18.664;2023-05-01T13:34:28;2.28;;;1.60;;
18320;SDS011;54904;54.350;18.664;2023-05-01T13:36:56;2.15;;;1.63;;
18320;SDS011;54904;54.350;18.664;2023-05-01T13:39:24;3.08;;;1.52;;
18320;SDS011;54904;54.350;18.664;2023-05-01T13:41:51;2.95;;;1.63;;
18320;SDS011;54904;54.350;18.664;2023-05-01T13:44:20;2.10;;;1.60;;
18320;SDS011;54904;54.350;18.664;2023-05-01T13:46:48;1.90;;;1.70;;
18320;SDS011;54904;54.350;18.664;2023-05-01T13:49:16;1.90;;;1.75;;
18320;SDS011;54904;54.350;18.664;2023-05-01T13:51:47;3.05;;;1.70;;
18320;SDS011;54904;54.350;18.664;2023-05-01T13:54:15;1.90;;;1.77;;
18320;SDS011;54904;54.350;18.664;2023-05-01T13:56:43;1.92;;;1.70;;
18320;SDS011;54904;54.350;18.664;2023-05-01T13:59:10;1.60;;;1.50;;
18320;SDS011;54904;54.350;18.664;2023-05-01T14:01:38;2.13;;;1.63;;
18320;SDS011;54904;54.350;18.664;2023-05-01T14:04:12;2.47;;;1.80;;
18320;SDS011;54904;54.350;18.664;2023-05-01T14:06:41;1.58;;;1.48;;
18320;SDS011;54904;54.350;18.664;2023-05-01T14:09:10;2.03;;;1.58;;
18320;SDS011;54904;54.350;18.664;2023-05-01T14:11:42;1.73;;;1.60;;
18320;SDS011;54904;54.350;18.664;2023-05-01T14:14:10;1.88;;;1.50;;
18320;SDS011;54904;54.350;18.664;2023-05-01T14:16:40;3.10;;;1.45;;
18320;SDS011;54904;54.350;18.664;2023-05-01T14:19:08;1.65;;;1.55;;
18320;SDS011;54904;54.350;18.664;2023-05-01T14:21:37;3.63;;;1.73;;
18320;SDS011;54904;54.350;18.664;2023-05-01T14:24:06;4.70;;;1.95;;
18320;SDS011;54904;54.350;18.664;2023-05-01T14:26:37;2.88;;;1.75;;
18320;SDS011;54904;54.350;18.664;2023-05-01T14:29:11;3.80;;;1.83;;
18320;SDS011;54904;54.350;18.664;2023-05-01T14:31:52;1.88;;;1.77;;
18320;SDS011;54904;54.350;18.664;2023-05-01T14:34:20;2.08;;;1.67;;
18320;SDS011;54904;54.350;18.664;2023-05-01T14:36:47;2.63;;;1.85;;
18320;SDS011;54904;54.350;18.664;2023-05-01T14:39:14;2.88;;;2.10;;
18320;SDS011;54904;54.350;18.664;2023-05-01T14:41:43;2.10;;;1.95;;
18320;SDS011;54904;54.350;18.664;2023-05-01T14:44:11;3.28;;;2.13;;
18320;SDS011;54904;54.350;18.664;2023-05-01T14:46:42;2.15;;;1.88;;
18320;SDS011;54904;54.350;18.664;2023-05-01T14:49:16;3.13;;;2.35;;
18320;SDS011;54904;54.350;18.664;2023-05-01T14:51:44;2.22;;;2.03;;
18320;SDS011;54904;54.350;18.664;2023-05-01T14:54:11;1.95;;;1.75;;
18320;SDS011;54904;54.350;18.664;2023-05-01T14:56:47;1.88;;;1.77;;
18320;SDS011;54904;54.350;18.664;2023-05-01T14:59:14;2.35;;;1.90;;
18320;SDS011;54904;54.350;18.664;2023-05-01T15:01:41;2.72;;;1.95;;
18320;SDS011;54904;54.350;18.664;2023-05-01T15:04:09;2.78;;;2.25;;
18320;SDS011;54904;54.350;18.664;2023-05-01T15:06:37;2.40;;;1.80;;
18320;SDS011;54904;54.350;18.664;2023-05-01T15:09:04;3.35;;;1.90;;
18320;SDS011;54904;54.350;18.664;2023-05-01T15:11:31;1.90;;;1.80;;